Madison, MN

10:33 AM CDT on May 23, 2018 (GMT -0500)
Madison-Lac Qui Parle County

Weather History for KDXX - November, 2013

Change the Weather History Date:

Friday, November 8, 2013

  Actual Average (KAQP) Record (KAQP)
Temperature  
Mean Temperature 38 °F -  
Max Temperature 51 °F 41 °F 82 °F (1999)
Min Temperature 26 °F 24 °F 1 °F (2003)
Degree Days  
Heating Degree Days 26    
Moisture  
Dew Point 32 °F    
Average Humidity 74    
Maximum Humidity 93    
Minimum Humidity 54    
Precipitation  
Precipitation 0.00 in - - ()
Sea Level Pressure  
Sea Level Pressure 29.79 in    
Wind  
Wind Speed 11 mph (South)    
Max Wind Speed 24 mph    
Max Gust Speed 32 mph    
Visibility 10 miles    
Events      
Averages and records for this station are not official NWS values.
T = Trace of Precipitation, MM = Missing Value Source: NWS Daily Summary

Daily Weather History Graph

Daily Weather History Graph

Search for Another Location

Airport or City:

Astronomy

Nov. 08, 2013 Rise Set
Actual Time 7:13 AM CST 5:03 PM CST
Civil Twilight 6:41 AM CST 5:34 PM CST
Nautical Twilight 6:06 AM CST 6:09 PM CST
Astronomical Twilight 5:32 AM CST 6:43 PM CST
Moon 12:09 PM CST (11/8) 10:26 PM CST (11/8)
Length of Visible Light 10h 52m
Length of Day
9h 50m
Waxing Crescent, 33% of the Moon is Illuminated
Nov 8
Waxing Crescent
Nov 9
First Quarter
Nov 17
Full
Nov 25
Last Quarter
Dec 2
New

Hourly Weather History & Observations

Time (CST) Temp. Windchill Dew Point Humidity Pressure Visibility Wind Dir Wind Speed Gust Speed Precip Events Conditions
12:14 AM 28.4 °F 21.2 °F 24.8 °F 86% 30.14 in 10.0 mi SSW 6.9 mph - N/A   Clear
12:33 AM 28.4 °F 23.3 °F 24.8 °F 86% 30.14 in 10.0 mi SW 4.6 mph - N/A   Clear
12:54 AM 28.4 °F 22.2 °F 26.6 °F 93% 30.14 in 10.0 mi SSW 5.8 mph - N/A   Clear
1:14 AM 26.6 °F 22.6 °F 24.8 °F 93% 30.13 in 10.0 mi South 3.5 mph - N/A   Clear
1:33 AM 26.6 °F 21.2 °F 23.0 °F 86% 30.13 in 10.0 mi South 4.6 mph - N/A   Clear
1:54 AM 26.6 °F 19.1 °F 24.8 °F 93% 30.13 in 10.0 mi South 6.9 mph - N/A   Clear
2:13 AM 28.4 °F 21.2 °F 24.8 °F 86% 30.12 in 10.0 mi South 6.9 mph - N/A   Clear
2:33 AM 26.6 °F 19.1 °F 24.8 °F 93% 30.11 in 10.0 mi SSE 6.9 mph - N/A   Clear
2:54 AM 28.4 °F 22.2 °F 24.8 °F 86% 30.09 in 10.0 mi SSE 5.8 mph - N/A   Clear
3:13 AM 28.4 °F 21.2 °F 24.8 °F 86% 30.09 in 10.0 mi SSE 6.9 mph - N/A   Clear
3:33 AM 28.4 °F 21.2 °F 24.8 °F 86% 30.08 in 10.0 mi SSE 6.9 mph - N/A   Clear
3:54 AM 28.4 °F 21.2 °F 24.8 °F 86% 30.07 in 10.0 mi SSE 6.9 mph - N/A   Clear
4:13 AM 28.4 °F 21.2 °F 24.8 °F 86% 30.06 in 10.0 mi SE 6.9 mph - N/A   Clear
4:33 AM 28.4 °F 21.2 °F 26.6 °F 93% 30.04 in 10.0 mi SE 6.9 mph - N/A   Clear
4:54 AM 28.4 °F 20.4 °F 26.6 °F 93% 30.03 in 10.0 mi ESE 8.1 mph - N/A   Clear
5:13 AM 28.4 °F 20.4 °F 26.6 °F 93% 30.02 in 10.0 mi SE 8.1 mph - N/A   Clear
5:34 AM 30.2 °F 21.9 °F 26.6 °F 86% 30.01 in 10.0 mi SE 9.2 mph - N/A   Clear
5:54 AM 30.2 °F 21.3 °F 26.6 °F 86% 30.00 in 10.0 mi SE 10.4 mph - N/A   Clear
6:13 AM 30.2 °F 21.9 °F 26.6 °F 86% 29.99 in 10.0 mi SE 9.2 mph - N/A   Scattered Clouds
6:34 AM 32.0 °F 23.0 °F 26.6 °F 80% 29.97 in 10.0 mi SE 11.5 mph - N/A   Scattered Clouds
6:54 AM 33.8 °F 24.8 °F 26.6 °F 75% 29.95 in 10.0 mi SE 12.7 mph - N/A   Scattered Clouds
7:13 AM 33.8 °F 23.9 °F 28.4 °F 81% 29.93 in 10.0 mi SE 15.0 mph - N/A   Scattered Clouds
7:34 AM 33.8 °F 23.2 °F 28.4 °F 81% 29.91 in 10.0 mi SE 17.3 mph - N/A   Scattered Clouds
7:54 AM 35.6 °F 25.5 °F 28.4 °F 75% 29.90 in 10.0 mi SE 17.3 mph - N/A   Clear
8:13 AM 35.6 °F 25.9 °F 28.4 °F 75% 29.89 in 10.0 mi SE 16.1 mph - N/A   Clear
8:34 AM 37.4 °F 28.2 °F 28.4 °F 70% 29.87 in 10.0 mi SE 16.1 mph - N/A   Clear
8:53 AM 37.4 °F 27.2 °F 28.4 °F 70% 29.85 in 10.0 mi SE 19.6 mph 24.2 mph N/A   Clear
9:13 AM 39.2 °F 28.5 °F 28.4 °F 65% 29.83 in 10.0 mi SE 24.2 mph 29.9 mph N/A   Clear
9:34 AM 41.0 °F 31.1 °F 28.4 °F 61% 29.81 in 10.0 mi SE 23.0 mph 29.9 mph N/A   Clear
9:53 AM 41.0 °F 31.1 °F 28.4 °F 61% 29.80 in 10.0 mi SSE 23.0 mph 28.8 mph N/A   Clear
10:13 AM 41.0 °F 31.1 °F 28.4 °F 61% 29.77 in 10.0 mi SE 23.0 mph 28.8 mph N/A   Scattered Clouds
10:34 AM 41.0 °F 31.4 °F 28.4 °F 61% 29.76 in 10.0 mi SE 21.9 mph 27.6 mph N/A   Mostly Cloudy
10:53 AM 42.8 °F 33.8 °F 28.4 °F 57% 29.75 in 10.0 mi SSE 21.9 mph 29.9 mph N/A   Scattered Clouds
11:13 AM 42.8 °F 34.0 °F 30.2 °F 61% 29.74 in 10.0 mi SSE 20.7 mph 32.2 mph N/A   Scattered Clouds
11:34 AM 42.8 °F 33.5 °F 30.2 °F 61% 29.71 in 10.0 mi SSE 23.0 mph 29.9 mph N/A   Scattered Clouds
11:53 AM 42.8 °F 33.5 °F 30.2 °F 61% 29.68 in 10.0 mi SSE 23.0 mph 29.9 mph N/A   Clear
12:13 PM 42.8 °F 33.5 °F 30.2 °F 61% 29.66 in 10.0 mi SSE 23.0 mph 29.9 mph N/A   Clear
12:34 PM 44.6 °F 35.9 °F 32.0 °F 61% 29.64 in 10.0 mi SSE 23.0 mph 32.2 mph N/A   Clear
12:53 PM 46.4 °F 39.0 °F 33.8 °F 62% 29.64 in 10.0 mi SSE 19.6 mph - N/A   Clear
1:13 PM 48.2 °F - 33.8 °F 58% 29.64 in 10.0 mi South 20.7 mph 27.6 mph N/A   Clear
1:34 PM 48.2 °F - 33.8 °F 58% 29.62 in 10.0 mi South 19.6 mph - N/A   Clear
1:53 PM 48.2 °F - 33.8 °F 58% 29.61 in 10.0 mi South 15.0 mph - N/A   Clear
2:14 PM 48.2 °F - 33.8 °F 58% 29.61 in 10.0 mi South 19.6 mph 25.3 mph N/A   Clear
2:33 PM 48.2 °F - 33.8 °F 58% 29.60 in 10.0 mi SSE 18.4 mph 21.9 mph N/A   Clear
2:54 PM 48.2 °F - 35.6 °F 62% 29.59 in 10.0 mi SSE 16.1 mph - N/A   Clear
3:14 PM 48.2 °F - 35.6 °F 62% 29.58 in 10.0 mi SSE 15.0 mph - N/A   Clear
3:33 PM 48.2 °F - 35.6 °F 62% 29.58 in 10.0 mi SSE 12.7 mph - N/A   Clear
3:54 PM 51.8 °F - 35.6 °F 54% 29.58 in 10.0 mi SSW 11.5 mph - N/A   Clear
4:14 PM 50.0 °F - 35.6 °F 58% 29.57 in 10.0 mi SSW 8.1 mph - N/A   Clear
4:33 PM 46.4 °F 43.5 °F 35.6 °F 66% 29.57 in 10.0 mi SSW 5.8 mph - N/A   Clear
4:54 PM 44.6 °F 40.7 °F 35.6 °F 71% 29.57 in 10.0 mi South 6.9 mph - N/A   Scattered Clouds
5:14 PM 44.6 °F 42.2 °F 35.6 °F 71% 29.57 in 10.0 mi SE 4.6 mph - N/A   Scattered Clouds
5:33 PM 44.6 °F 41.4 °F 35.6 °F 71% 29.57 in 10.0 mi SSE 5.8 mph - N/A   Mostly Cloudy
5:54 PM 44.6 °F - 35.6 °F 71% 29.57 in 10.0 mi Calm Calm - N/A   Mostly Cloudy
6:14 PM 46.4 °F 42.4 °F 37.4 °F 71% 29.58 in 10.0 mi WSW 8.1 mph - N/A   Mostly Cloudy
6:33 PM 50.0 °F - 41.0 °F 71% 29.59 in 10.0 mi West 16.1 mph 20.7 mph N/A   Overcast
6:54 PM 50.0 °F - 41.0 °F 71% 29.60 in 10.0 mi WNW 13.8 mph - N/A   Overcast
7:13 PM 50.0 °F - 41.0 °F 71% 29.60 in 10.0 mi West 12.7 mph - N/A   Overcast
7:34 PM 48.2 °F - 42.8 °F 82% 29.61 in 10.0 mi West 12.7 mph 17.3 mph N/A   Overcast
7:54 PM 50.0 °F - 42.8 °F 76% 29.60 in 10.0 mi West 12.7 mph 17.3 mph N/A   Overcast
8:13 PM 50.0 °F - 42.8 °F 76% 29.60 in 10.0 mi West 12.7 mph 19.6 mph N/A   Overcast
8:34 PM 50.0 °F - 42.8 °F 76% 29.61 in 10.0 mi West 19.6 mph 26.5 mph N/A   Overcast
8:54 PM 48.2 °F - 42.8 °F 82% 29.62 in 10.0 mi West 17.3 mph 23.0 mph N/A   Light Drizzle
9:13 PM 48.2 °F - 42.8 °F 82% 29.62 in 10.0 mi West 13.8 mph - N/A   Overcast
9:33 PM 48.2 °F - 41.0 °F 76% 29.63 in 10.0 mi WNW 18.4 mph 24.2 mph N/A   Overcast
9:53 PM 46.4 °F 40.1 °F 39.2 °F 76% 29.64 in 10.0 mi WNW 15.0 mph - N/A   Mostly Cloudy
10:13 PM 46.4 °F 40.7 °F 39.2 °F 76% 29.65 in 10.0 mi WNW 12.7 mph - N/A   Mostly Cloudy
10:33 PM 44.6 °F 37.8 °F 39.2 °F 81% 29.66 in 10.0 mi WNW 15.0 mph 18.4 mph N/A   Scattered Clouds
10:54 PM 44.6 °F 38.4 °F 39.2 °F 81% 29.67 in 10.0 mi West 12.7 mph - N/A   Clear
11:13 PM 44.6 °F 39.7 °F 37.4 °F 76% 29.67 in 10.0 mi West 9.2 mph - N/A   Scattered Clouds
11:33 PM 44.6 °F 39.2 °F 37.4 °F 76% 29.68 in 10.0 mi WNW 10.4 mph - N/A   Scattered Clouds
11:54 PM 42.8 °F 37.0 °F 37.4 °F 81% 29.69 in 10.0 mi West 10.4 mph - N/A   Clear